Corwin, Kansas
Current Conditions -  °F | °C
As of 6:50 PM on Wednesday 22 Oct 2014 (Local Time) from KAVK Reporting Station
Broken Clouds Broken Clouds  
Wind Chill: 66°   Ceiling: 12000
Heat Index: 66°   Visibility: 10mi
Dew Point: 59°   Wind: 17mph
Humidity: 78%   Direction: 200°SSW
Pressure: 30.06"   Gusts: NA
Location:  37.1231°N, 98.4033°W
Report Text: KAVK 222350Z AUTO 20015KT 10SM BKN120 19/15 A3006 RMK AO2
Loading
Personal Weather Stations






























Interactive Weather Map
Tropical Storm Tracking
New forecast layout! Learn more

10-Day Weather Forecast

Advertisements
Track Severe Weather on mobile